sensor_id;sensor_type;location;lat;lon;timestamp;P1;durP1;ratioP1;P2;durP2;ratioP2
10801;SDS011;5453;50.852;7.102;2023-05-20T00:01:01;1.63;;;1.02;;
10801;SDS011;5453;50.852;7.102;2023-05-20T00:03:35;1.48;;;1.02;;
10801;SDS011;5453;50.852;7.102;2023-05-20T00:06:07;1.02;;;0.93;;
10801;SDS011;5453;50.852;7.102;2023-05-20T00:08:39;1.63;;;1.10;;
10801;SDS011;5453;50.852;7.102;2023-05-20T00:11:11;2.05;;;1.23;;
10801;SDS011;5453;50.852;7.102;2023-05-20T00:13:44;1.50;;;1.02;;
10801;SDS011;5453;50.852;7.102;2023-05-20T00:16:16;2.08;;;1.17;;
10801;SDS011;5453;50.852;7.102;2023-05-20T00:18:49;1.98;;;1.10;;
10801;SDS011;5453;50.852;7.102;2023-05-20T00:21:21;1.33;;;0.90;;
10801;SDS011;5453;50.852;7.102;2023-05-20T00:23:54;2.92;;;1.17;;
10801;SDS011;5453;50.852;7.102;2023-05-20T00:26:27;1.75;;;1.10;;
10801;SDS011;5453;50.852;7.102;2023-05-20T00:29:01;1.20;;;1.10;;
10801;SDS011;5453;50.852;7.102;2023-05-20T00:31:33;1.55;;;1.10;;
10801;SDS011;5453;50.852;7.102;2023-05-20T00:34:06;1.50;;;1.02;;
10801;SDS011;5453;50.852;7.102;2023-05-20T00:36:39;2.45;;;1.00;;
10801;SDS011;5453;50.852;7.102;2023-05-20T00:39:12;1.67;;;1.05;;
10801;SDS011;5453;50.852;7.102;2023-05-20T00:41:44;1.38;;;0.98;;
10801;SDS011;5453;50.852;7.102;2023-05-20T00:44:16;1.00;;;0.88;;
10801;SDS011;5453;50.852;7.102;2023-05-20T00:46:48;1.08;;;0.98;;
10801;SDS011;5453;50.852;7.102;2023-05-20T00:49:22;1.40;;;0.80;;
10801;SDS011;5453;50.852;7.102;2023-05-20T00:51:54;1.73;;;0.93;;
10801;SDS011;5453;50.852;7.102;2023-05-20T00:54:26;1.13;;;1.02;;
10801;SDS011;5453;50.852;7.102;2023-05-20T00:56:58;1.55;;;1.00;;
10801;SDS011;5453;50.852;7.102;2023-05-20T00:59:32;1.40;;;1.10;;
10801;SDS011;5453;50.852;7.102;2023-05-20T01:02:05;1.63;;;1.00;;
10801;SDS011;5453;50.852;7.102;2023-05-20T01:04:39;1.65;;;1.55;;
10801;SDS011;5453;50.852;7.102;2023-05-20T01:07:16;2.08;;;1.00;;
10801;SDS011;5453;50.852;7.102;2023-05-20T01:09:49;1.70;;;0.98;;
10801;SDS011;5453;50.852;7.102;2023-05-20T01:12:25;1.40;;;1.02;;
10801;SDS011;5453;50.852;7.102;2023-05-20T01:15:04;1.73;;;1.20;;
10801;SDS011;5453;50.852;7.102;2023-05-20T01:17:40;1.10;;;1.00;;
10801;SDS011;5453;50.852;7.102;2023-05-20T01:20:17;2.30;;;0.98;;
10801;SDS011;5453;50.852;7.102;2023-05-20T01:22:53;1.98;;;1.20;;
10801;SDS011;5453;50.852;7.102;2023-05-20T01:25:26;1.40;;;1.02;;
10801;SDS011;5453;50.852;7.102;2023-05-20T01:27:59;1.60;;;1.00;;
10801;SDS011;5453;50.852;7.102;2023-05-20T01:30:34;1.25;;;0.95;;
10801;SDS011;5453;50.852;7.102;2023-05-20T01:33:17;1.58;;;1.20;;
10801;SDS011;5453;50.852;7.102;2023-05-20T01:35:52;1.42;;;1.08;;
10801;SDS011;5453;50.852;7.102;2023-05-20T01:38:27;1.90;;;1.23;;
10801;SDS011;5453;50.852;7.102;2023-05-20T01:41:00;1.33;;;1.10;;
10801;SDS011;5453;50.852;7.102;2023-05-20T01:43:37;1.38;;;1.00;;
10801;SDS011;5453;50.852;7.102;2023-05-20T01:46:10;1.58;;;1.15;;
10801;SDS011;5453;50.852;7.102;2023-05-20T01:48:42;1.95;;;1.13;;
10801;SDS011;5453;50.852;7.102;2023-05-20T01:51:14;2.65;;;1.20;;
10801;SDS011;5453;50.852;7.102;2023-05-20T01:53:48;2.00;;;1.13;;
10801;SDS011;5453;50.852;7.102;2023-05-20T01:56:20;2.42;;;1.13;;
10801;SDS011;5453;50.852;7.102;2023-05-20T01:58:53;2.05;;;1.20;;
10801;SDS011;5453;50.852;7.102;2023-05-20T02:01:25;2.45;;;1.20;;
10801;SDS011;5453;50.852;7.102;2023-05-20T02:03:57;2.10;;;1.20;;
10801;SDS011;5453;50.852;7.102;2023-05-20T02:06:29;1.58;;;1.20;;
10801;SDS011;5453;50.852;7.102;2023-05-20T02:09:03;1.65;;;1.20;;
10801;SDS011;5453;50.852;7.102;2023-05-20T02:11:36;1.23;;;1.13;;
10801;SDS011;5453;50.852;7.102;2023-05-20T02:14:09;1.20;;;1.08;;
10801;SDS011;5453;50.852;7.102;2023-05-20T02:16:42;1.75;;;1.50;;
10801;SDS011;5453;50.852;7.102;2023-05-20T02:19:16;1.40;;;1.23;;
10801;SDS011;5453;50.852;7.102;2023-05-20T02:21:52;2.45;;;1.40;;
10801;SDS011;5453;50.852;7.102;2023-05-20T02:24:26;1.65;;;1.23;;
10801;SDS011;5453;50.852;7.102;2023-05-20T02:26:58;2.33;;;1.27;;
10801;SDS011;5453;50.852;7.102;2023-05-20T02:29:32;1.65;;;1.30;;
10801;SDS011;5453;50.852;7.102;2023-05-20T02:32:05;2.47;;;1.30;;
10801;SDS011;5453;50.852;7.102;2023-05-20T02:34:38;2.78;;;1.55;;
10801;SDS011;5453;50.852;7.102;2023-05-20T02:37:10;3.30;;;1.30;;
10801;SDS011;5453;50.852;7.102;2023-05-20T02:39:43;1.88;;;1.30;;
10801;SDS011;5453;50.852;7.102;2023-05-20T02:42:17;3.03;;;1.40;;
10801;SDS011;5453;50.852;7.102;2023-05-20T02:44:49;3.08;;;1.33;;
10801;SDS011;5453;50.852;7.102;2023-05-20T02:47:25;2.38;;;1.40;;
10801;SDS011;5453;50.852;7.102;2023-05-20T02:49:57;2.55;;;1.33;;
10801;SDS011;5453;50.852;7.102;2023-05-20T02:52:30;2.15;;;1.30;;
10801;SDS011;5453;50.852;7.102;2023-05-20T02:55:05;1.65;;;1.38;;
10801;SDS011;5453;50.852;7.102;2023-05-20T03:00:12;1.90;;;1.20;;
10801;SDS011;5453;50.852;7.102;2023-05-20T03:02:46;1.60;;;1.30;;
10801;SDS011;5453;50.852;7.102;2023-05-20T03:05:18;1.45;;;1.27;;
10801;SDS011;5453;50.852;7.102;2023-05-20T03:07:51;1.50;;;1.38;;
10801;SDS011;5453;50.852;7.102;2023-05-20T03:10:24;1.90;;;1.23;;
10801;SDS011;5453;50.852;7.102;2023-05-20T03:12:56;2.03;;;1.42;;
10801;SDS011;5453;50.852;7.102;2023-05-20T03:15:28;2.25;;;1.45;;
10801;SDS011;5453;50.852;7.102;2023-05-20T03:18:01;3.70;;;1.48;;
10801;SDS011;5453;50.852;7.102;2023-05-20T03:20:34;2.45;;;1.52;;
10801;SDS011;5453;50.852;7.102;2023-05-20T03:23:07;1.50;;;1.15;;
10801;SDS011;5453;50.852;7.102;2023-05-20T03:25:42;2.65;;;1.70;;
10801;SDS011;5453;50.852;7.102;2023-05-20T03:28:14;1.50;;;1.33;;
10801;SDS011;5453;50.852;7.102;2023-05-20T03:30:47;2.92;;;1.40;;
10801;SDS011;5453;50.852;7.102;2023-05-20T03:33:20;2.25;;;1.55;;
10801;SDS011;5453;50.852;7.102;2023-05-20T03:35:57;1.90;;;1.38;;
10801;SDS011;5453;50.852;7.102;2023-05-20T03:38:29;2.08;;;1.55;;
10801;SDS011;5453;50.852;7.102;2023-05-20T03:41:04;1.75;;;1.30;;
10801;SDS011;5453;50.852;7.102;2023-05-20T03:43:37;2.25;;;1.50;;
10801;SDS011;5453;50.852;7.102;2023-05-20T03:46:10;2.03;;;1.23;;
10801;SDS011;5453;50.852;7.102;2023-05-20T03:48:42;1.90;;;1.42;;
10801;SDS011;5453;50.852;7.102;2023-05-20T03:51:15;2.65;;;1.67;;
10801;SDS011;5453;50.852;7.102;2023-05-20T03:53:49;1.52;;;1.40;;
10801;SDS011;5453;50.852;7.102;2023-05-20T03:56:22;1.52;;;1.42;;
10801;SDS011;5453;50.852;7.102;2023-05-20T03:58:55;2.38;;;1.58;;
10801;SDS011;5453;50.852;7.102;2023-05-20T04:01:28;2.97;;;1.52;;
10801;SDS011;5453;50.852;7.102;2023-05-20T04:04:01;2.50;;;1.83;;
10801;SDS011;5453;50.852;7.102;2023-05-20T04:06:33;1.73;;;1.55;;
10801;SDS011;5453;50.852;7.102;2023-05-20T04:09:06;3.10;;;1.33;;
10801;SDS011;5453;50.852;7.102;2023-05-20T04:11:40;2.28;;;1.58;;
10801;SDS011;5453;50.852;7.102;2023-05-20T04:14:12;2.35;;;1.45;;
10801;SDS011;5453;50.852;7.102;2023-05-20T04:16:44;2.65;;;1.50;;
10801;SDS011;5453;50.852;7.102;2023-05-20T04:19:17;2.30;;;1.83;;
10801;SDS011;5453;50.852;7.102;2023-05-20T04:21:50;1.85;;;1.38;;
10801;SDS011;5453;50.852;7.102;2023-05-20T04:24:22;1.90;;;1.30;;
10801;SDS011;5453;50.852;7.102;2023-05-20T04:27:00;2.47;;;1.30;;
10801;SDS011;5453;50.852;7.102;2023-05-20T04:29:32;2.10;;;1.40;;
10801;SDS011;5453;50.852;7.102;2023-05-20T04:32:06;1.50;;;1.33;;
10801;SDS011;5453;50.852;7.102;2023-05-20T04:34:40;2.17;;;1.48;;
10801;SDS011;5453;50.852;7.102;2023-05-20T04:37:14;1.92;;;1.35;;
10801;SDS011;5453;50.852;7.102;2023-05-20T04:39:47;2.90;;;1.52;;
10801;SDS011;5453;50.852;7.102;2023-05-20T04:42:22;2.28;;;1.50;;
10801;SDS011;5453;50.852;7.102;2023-05-20T04:44:55;1.98;;;1.40;;
10801;SDS011;5453;50.852;7.102;2023-05-20T04:47:27;2.90;;;1.70;;
10801;SDS011;5453;50.852;7.102;2023-05-20T04:49:59;2.80;;;1.58;;
10801;SDS011;5453;50.852;7.102;2023-05-20T04:52:32;3.10;;;1.50;;
10801;SDS011;5453;50.852;7.102;2023-05-20T04:55:06;2.70;;;1.58;;
10801;SDS011;5453;50.852;7.102;2023-05-20T04:57:41;1.92;;;1.52;;
10801;SDS011;5453;50.852;7.102;2023-05-20T05:00:14;2.47;;;1.67;;
10801;SDS011;5453;50.852;7.102;2023-05-20T05:02:46;1.85;;;1.50;;
10801;SDS011;5453;50.852;7.102;2023-05-20T05:05:19;2.55;;;1.42;;
10801;SDS011;5453;50.852;7.102;2023-05-20T05:07:52;1.90;;;1.50;;
10801;SDS011;5453;50.852;7.102;2023-05-20T05:10:24;1.48;;;1.20;;
10801;SDS011;5453;50.852;7.102;2023-05-20T05:12:59;2.65;;;1.40;;
10801;SDS011;5453;50.852;7.102;2023-05-20T05:15:32;3.00;;;1.80;;
10801;SDS011;5453;50.852;7.102;2023-05-20T05:18:06;2.08;;;1.38;;
10801;SDS011;5453;50.852;7.102;2023-05-20T05:20:40;2.75;;;1.55;;
10801;SDS011;5453;50.852;7.102;2023-05-20T05:23:13;2.90;;;1.42;;
10801;SDS011;5453;50.852;7.102;2023-05-20T05:25:48;2.83;;;1.48;;
10801;SDS011;5453;50.852;7.102;2023-05-20T05:28:24;3.03;;;1.67;;
10801;SDS011;5453;50.852;7.102;2023-05-20T05:30:56;2.95;;;1.50;;
10801;SDS011;5453;50.852;7.102;2023-05-20T05:33:29;2.75;;;1.42;;
10801;SDS011;5453;50.852;7.102;2023-05-20T05:36:02;3.17;;;1.40;;
10801;SDS011;5453;50.852;7.102;2023-05-20T05:38:35;2.83;;;1.35;;
10801;SDS011;5453;50.852;7.102;2023-05-20T05:41:07;2.45;;;1.58;;
10801;SDS011;5453;50.852;7.102;2023-05-20T05:43:42;2.75;;;1.30;;
10801;SDS011;5453;50.852;7.102;2023-05-20T05:46:15;2.20;;;1.45;;
10801;SDS011;5453;50.852;7.102;2023-05-20T05:48:47;2.75;;;1.40;;
10801;SDS011;5453;50.852;7.102;2023-05-20T05:51:21;2.33;;;1.50;;
10801;SDS011;5453;50.852;7.102;2023-05-20T05:53:55;1.70;;;1.20;;
10801;SDS011;5453;50.852;7.102;2023-05-20T05:56:28;2.85;;;1.63;;
10801;SDS011;5453;50.852;7.102;2023-05-20T05:59:02;2.58;;;1.33;;
10801;SDS011;5453;50.852;7.102;2023-05-20T06:01:35;1.88;;;1.52;;
10801;SDS011;5453;50.852;7.102;2023-05-20T06:04:07;1.98;;;1.40;;
10801;SDS011;5453;50.852;7.102;2023-05-20T06:06:40;2.25;;;1.40;;
10801;SDS011;5453;50.852;7.102;2023-05-20T06:09:12;2.80;;;1.63;;
10801;SDS011;5453;50.852;7.102;2023-05-20T06:11:45;2.05;;;1.50;;
10801;SDS011;5453;50.852;7.102;2023-05-20T06:14:18;2.33;;;1.60;;
10801;SDS011;5453;50.852;7.102;2023-05-20T06:16:51;3.63;;;1.77;;
10801;SDS011;5453;50.852;7.102;2023-05-20T06:19:24;4.57;;;2.00;;
10801;SDS011;5453;50.852;7.102;2023-05-20T06:21:56;3.83;;;2.03;;
10801;SDS011;5453;50.852;7.102;2023-05-20T06:24:28;2.67;;;2.00;;
10801;SDS011;5453;50.852;7.102;2023-05-20T06:27:00;2.22;;;1.80;;
10801;SDS011;5453;50.852;7.102;2023-05-20T06:29:34;4.47;;;1.90;;
10801;SDS011;5453;50.852;7.102;2023-05-20T06:32:07;3.15;;;2.47;;
10801;SDS011;5453;50.852;7.102;2023-05-20T06:34:40;2.92;;;1.50;;
10801;SDS011;5453;50.852;7.102;2023-05-20T06:37:12;3.45;;;1.83;;
10801;SDS011;5453;50.852;7.102;2023-05-20T06:39:44;2.05;;;1.48;;
10801;SDS011;5453;50.852;7.102;2023-05-20T06:42:20;2.63;;;1.58;;
10801;SDS011;5453;50.852;7.102;2023-05-20T06:45:08;3.25;;;2.42;;
10801;SDS011;5453;50.852;7.102;2023-05-20T06:47:46;3.10;;;1.88;;
10801;SDS011;5453;50.852;7.102;2023-05-20T06:50:19;3.47;;;1.80;;
10801;SDS011;5453;50.852;7.102;2023-05-20T06:52:51;2.13;;;1.35;;
10801;SDS011;5453;50.852;7.102;2023-05-20T06:55:23;2.42;;;1.63;;
10801;SDS011;5453;50.852;7.102;2023-05-20T06:57:57;2.30;;;1.63;;
10801;SDS011;5453;50.852;7.102;2023-05-20T07:00:32;2.25;;;1.75;;
10801;SDS011;5453;50.852;7.102;2023-05-20T07:03:04;4.28;;;2.10;;
10801;SDS011;5453;50.852;7.102;2023-05-20T07:05:36;2.70;;;1.55;;
10801;SDS011;5453;50.852;7.102;2023-05-20T07:08:10;2.30;;;1.58;;
10801;SDS011;5453;50.852;7.102;2023-05-20T07:10:42;2.67;;;1.52;;
10801;SDS011;5453;50.852;7.102;2023-05-20T07:13:17;3.22;;;1.70;;
10801;SDS011;5453;50.852;7.102;2023-05-20T07:15:51;4.32;;;2.10;;
10801;SDS011;5453;50.852;7.102;2023-05-20T07:18:23;2.90;;;1.88;;
10801;SDS011;5453;50.852;7.102;2023-05-20T07:20:57;3.63;;;1.92;;
10801;SDS011;5453;50.852;7.102;2023-05-20T07:23:55;3.47;;;1.83;;
10801;SDS011;5453;50.852;7.102;2023-05-20T07:26:27;4.03;;;2.10;;
10801;SDS011;5453;50.852;7.102;2023-05-20T07:29:02;2.63;;;1.80;;
10801;SDS011;5453;50.852;7.102;2023-05-20T07:31:37;3.55;;;1.80;;
10801;SDS011;5453;50.852;7.102;2023-05-20T07:34:09;3.92;;;1.73;;
10801;SDS011;5453;50.852;7.102;2023-05-20T07:36:41;2.70;;;1.95;;
10801;SDS011;5453;50.852;7.102;2023-05-20T07:39:14;3.20;;;1.50;;
10801;SDS011;5453;50.852;7.102;2023-05-20T07:41:46;3.88;;;1.83;;
10801;SDS011;5453;50.852;7.102;2023-05-20T07:44:18;4.35;;;2.08;;
10801;SDS011;5453;50.852;7.102;2023-05-20T07:46:55;2.42;;;1.73;;
10801;SDS011;5453;50.852;7.102;2023-05-20T07:49:28;2.70;;;1.60;;
10801;SDS011;5453;50.852;7.102;2023-05-20T07:52:00;2.78;;;1.80;;
10801;SDS011;5453;50.852;7.102;2023-05-20T07:54:33;2.88;;;1.88;;
10801;SDS011;5453;50.852;7.102;2023-05-20T07:57:06;4.85;;;1.90;;
10801;SDS011;5453;50.852;7.102;2023-05-20T07:59:38;7.30;;;2.80;;
10801;SDS011;5453;50.852;7.102;2023-05-20T08:02:12;6.25;;;2.40;;
10801;SDS011;5453;50.852;7.102;2023-05-20T08:04:45;3.10;;;1.92;;
10801;SDS011;5453;50.852;7.102;2023-05-20T08:07:17;2.85;;;1.92;;
10801;SDS011;5453;50.852;7.102;2023-05-20T08:09:56;3.22;;;1.80;;
10801;SDS011;5453;50.852;7.102;2023-05-20T08:12:30;2.72;;;1.65;;
10801;SDS011;5453;50.852;7.102;2023-05-20T08:15:04;4.10;;;1.75;;
10801;SDS011;5453;50.852;7.102;2023-05-20T08:17:39;2.58;;;1.63;;
10801;SDS011;5453;50.852;7.102;2023-05-20T08:20:12;2.40;;;1.73;;
10801;SDS011;5453;50.852;7.102;2023-05-20T08:22:44;3.30;;;2.00;;
10801;SDS011;5453;50.852;7.102;2023-05-20T08:25:17;3.78;;;1.73;;
10801;SDS011;5453;50.852;7.102;2023-05-20T08:30:22;2.35;;;1.50;;
10801;SDS011;5453;50.852;7.102;2023-05-20T08:32:56;3.85;;;1.80;;
10801;SDS011;5453;50.852;7.102;2023-05-20T08:35:30;3.67;;;2.00;;
10801;SDS011;5453;50.852;7.102;2023-05-20T08:38:02;2.88;;;1.73;;
10801;SDS011;5453;50.852;7.102;2023-05-20T08:40:34;1.90;;;1.63;;
10801;SDS011;5453;50.852;7.102;2023-05-20T08:43:06;2.83;;;1.80;;
10801;SDS011;5453;50.852;7.102;2023-05-20T08:45:38;3.33;;;1.85;;
10801;SDS011;5453;50.852;7.102;2023-05-20T08:48:17;4.07;;;1.98;;
10801;SDS011;5453;50.852;7.102;2023-05-20T08:50:50;3.20;;;1.83;;
10801;SDS011;5453;50.852;7.102;2023-05-20T08:53:23;2.92;;;1.95;;
10801;SDS011;5453;50.852;7.102;2023-05-20T08:55:57;3.60;;;1.90;;
10801;SDS011;5453;50.852;7.102;2023-05-20T08:58:32;3.90;;;1.85;;
10801;SDS011;5453;50.852;7.102;2023-05-20T09:01:04;3.17;;;1.70;;
10801;SDS011;5453;50.852;7.102;2023-05-20T09:03:38;3.17;;;1.88;;
10801;SDS011;5453;50.852;7.102;2023-05-20T09:06:15;4.30;;;2.03;;
10801;SDS011;5453;50.852;7.102;2023-05-20T09:08:49;5.03;;;1.90;;
10801;SDS011;5453;50.852;7.102;2023-05-20T09:11:21;3.03;;;1.73;;
10801;SDS011;5453;50.852;7.102;2023-05-20T09:13:53;2.80;;;1.70;;
10801;SDS011;5453;50.852;7.102;2023-05-20T09:16:25;3.90;;;1.73;;
10801;SDS011;5453;50.852;7.102;2023-05-20T09:18:59;3.75;;;1.60;;
10801;SDS011;5453;50.852;7.102;2023-05-20T09:21:31;3.05;;;1.70;;
10801;SDS011;5453;50.852;7.102;2023-05-20T09:24:05;2.58;;;1.73;;
10801;SDS011;5453;50.852;7.102;2023-05-20T09:26:37;2.10;;;1.70;;
10801;SDS011;5453;50.852;7.102;2023-05-20T09:29:09;2.00;;;1.60;;
10801;SDS011;5453;50.852;7.102;2023-05-20T09:31:41;2.90;;;1.67;;
10801;SDS011;5453;50.852;7.102;2023-05-20T09:34:15;1.83;;;1.52;;
10801;SDS011;5453;50.852;7.102;2023-05-20T09:36:48;4.13;;;1.92;;
10801;SDS011;5453;50.852;7.102;2023-05-20T09:39:24;2.75;;;1.70;;
10801;SDS011;5453;50.852;7.102;2023-05-20T09:42:04;2.95;;;1.70;;
10801;SDS011;5453;50.852;7.102;2023-05-20T09:44:46;3.10;;;1.90;;
10801;SDS011;5453;50.852;7.102;2023-05-20T09:47:20;3.13;;;1.70;;
10801;SDS011;5453;50.852;7.102;2023-05-20T09:49:56;2.55;;;2.00;;
10801;SDS011;5453;50.852;7.102;2023-05-20T09:52:28;1.80;;;1.50;;
10801;SDS011;5453;50.852;7.102;2023-05-20T09:55:01;2.95;;;1.90;;
10801;SDS011;5453;50.852;7.102;2023-05-20T09:57:35;2.72;;;2.00;;
10801;SDS011;5453;50.852;7.102;2023-05-20T10:00:09;2.65;;;1.65;;
10801;SDS011;5453;50.852;7.102;2023-05-20T10:02:43;3.78;;;2.17;;
10801;SDS011;5453;50.852;7.102;2023-05-20T10:05:19;3.95;;;2.00;;
10801;SDS011;5453;50.852;7.102;2023-05-20T10:10:58;2.65;;;2.00;;
10801;SDS011;5453;50.852;7.102;2023-05-20T10:13:48;3.80;;;2.28;;
10801;SDS011;5453;50.852;7.102;2023-05-20T10:16:37;4.00;;;2.15;;
10801;SDS011;5453;50.852;7.102;2023-05-20T10:19:26;3.28;;;2.22;;
10801;SDS011;5453;50.852;7.102;2023-05-20T10:22:01;3.35;;;2.10;;
10801;SDS011;5453;50.852;7.102;2023-05-20T10:24:36;3.42;;;1.92;;
10801;SDS011;5453;50.852;7.102;2023-05-20T10:27:11;3.70;;;2.30;;
10801;SDS011;5453;50.852;7.102;2023-05-20T10:29:45;4.35;;;2.60;;
10801;SDS011;5453;50.852;7.102;2023-05-20T10:32:23;4.03;;;2.33;;
10801;SDS011;5453;50.852;7.102;2023-05-20T10:35:00;3.88;;;2.25;;
10801;SDS011;5453;50.852;7.102;2023-05-20T10:37:39;3.25;;;2.28;;
10801;SDS011;5453;50.852;7.102;2023-05-20T10:40:13;3.85;;;1.95;;
10801;SDS011;5453;50.852;7.102;2023-05-20T10:42:48;3.83;;;2.35;;
10801;SDS011;5453;50.852;7.102;2023-05-20T10:45:23;4.88;;;2.67;;
10801;SDS011;5453;50.852;7.102;2023-05-20T10:47:57;3.60;;;2.47;;
10801;SDS011;5453;50.852;7.102;2023-05-20T10:50:32;4.85;;;2.42;;
10801;SDS011;5453;50.852;7.102;2023-05-20T10:53:10;4.53;;;2.50;;
10801;SDS011;5453;50.852;7.102;2023-05-20T10:55:48;3.47;;;2.65;;
10801;SDS011;5453;50.852;7.102;2023-05-20T10:58:22;4.30;;;2.17;;
10801;SDS011;5453;50.852;7.102;2023-05-20T11:00:55;4.72;;;2.50;;
10801;SDS011;5453;50.852;7.102;2023-05-20T11:03:27;3.13;;;2.33;;
10801;SDS011;5453;50.852;7.102;2023-05-20T11:06:00;4.88;;;2.60;;
10801;SDS011;5453;50.852;7.102;2023-05-20T11:08:33;5.30;;;2.47;;
10801;SDS011;5453;50.852;7.102;2023-05-20T11:11:06;4.05;;;2.28;;
10801;SDS011;5453;50.852;7.102;2023-05-20T11:13:38;4.88;;;2.45;;
10801;SDS011;5453;50.852;7.102;2023-05-20T11:16:10;4.10;;;2.30;;
10801;SDS011;5453;50.852;7.102;2023-05-20T11:18:42;4.18;;;2.55;;
10801;SDS011;5453;50.852;7.102;2023-05-20T11:21:15;4.10;;;2.00;;
10801;SDS011;5453;50.852;7.102;2023-05-20T11:23:50;3.47;;;2.40;;
10801;SDS011;5453;50.852;7.102;2023-05-20T11:26:22;3.67;;;2.40;;
10801;SDS011;5453;50.852;7.102;2023-05-20T11:28:55;3.15;;;2.22;;
10801;SDS011;5453;50.852;7.102;2023-05-20T11:31:27;3.10;;;2.00;;
10801;SDS011;5453;50.852;7.102;2023-05-20T11:33:59;2.38;;;2.03;;
10801;SDS011;5453;50.852;7.102;2023-05-20T11:36:33;4.10;;;2.15;;
10801;SDS011;5453;50.852;7.102;2023-05-20T11:39:07;3.92;;;2.42;;
10801;SDS011;5453;50.852;7.102;2023-05-20T11:41:41;4.32;;;2.28;;
10801;SDS011;5453;50.852;7.102;2023-05-20T11:44:13;3.40;;;2.58;;
10801;SDS011;5453;50.852;7.102;2023-05-20T11:46:46;4.78;;;2.30;;
10801;SDS011;5453;50.852;7.102;2023-05-20T11:49:18;3.70;;;2.15;;
10801;SDS011;5453;50.852;7.102;2023-05-20T11:51:50;5.35;;;2.92;;
10801;SDS011;5453;50.852;7.102;2023-05-20T11:54:24;5.15;;;2.65;;
10801;SDS011;5453;50.852;7.102;2023-05-20T11:56:57;3.28;;;2.25;;
10801;SDS011;5453;50.852;7.102;2023-05-20T11:59:29;3.70;;;2.30;;
10801;SDS011;5453;50.852;7.102;2023-05-20T12:02:01;4.45;;;2.65;;
10801;SDS011;5453;50.852;7.102;2023-05-20T12:04:33;3.25;;;2.20;;
10801;SDS011;5453;50.852;7.102;2023-05-20T12:07:05;5.38;;;3.08;;
10801;SDS011;5453;50.852;7.102;2023-05-20T12:09:41;2.88;;;2.20;;
10801;SDS011;5453;50.852;7.102;2023-05-20T12:12:13;3.97;;;2.60;;
10801;SDS011;5453;50.852;7.102;2023-05-20T12:14:45;4.93;;;2.80;;
10801;SDS011;5453;50.852;7.102;2023-05-20T12:17:17;4.85;;;2.55;;
10801;SDS011;5453;50.852;7.102;2023-05-20T12:19:49;5.65;;;2.72;;
10801;SDS011;5453;50.852;7.102;2023-05-20T12:22:21;3.92;;;2.83;;
10801;SDS011;5453;50.852;7.102;2023-05-20T12:24:55;3.47;;;2.35;;
10801;SDS011;5453;50.852;7.102;2023-05-20T12:27:27;5.28;;;2.50;;
10801;SDS011;5453;50.852;7.102;2023-05-20T12:29:59;3.83;;;2.47;;
10801;SDS011;5453;50.852;7.102;2023-05-20T12:32:32;3.63;;;2.50;;
10801;SDS011;5453;50.852;7.102;2023-05-20T12:35:04;4.07;;;2.78;;
10801;SDS011;5453;50.852;7.102;2023-05-20T12:37:37;4.75;;;2.40;;
10801;SDS011;5453;50.852;7.102;2023-05-20T12:40:12;4.60;;;2.60;;
10801;SDS011;5453;50.852;7.102;2023-05-20T12:42:44;4.13;;;2.53;;
10801;SDS011;5453;50.852;7.102;2023-05-20T12:45:16;4.53;;;2.42;;
10801;SDS011;5453;50.852;7.102;2023-05-20T12:47:48;4.93;;;2.67;;
10801;SDS011;5453;50.852;7.102;2023-05-20T12:50:21;6.40;;;2.72;;
10801;SDS011;5453;50.852;7.102;2023-05-20T12:52:53;4.90;;;2.58;;
10801;SDS011;5453;50.852;7.102;2023-05-20T12:55:26;4.03;;;2.30;;
10801;SDS011;5453;50.852;7.102;2023-05-20T12:57:58;4.00;;;2.58;;
10801;SDS011;5453;50.852;7.102;2023-05-20T13:00:30;4.97;;;2.70;;
10801;SDS011;5453;50.852;7.102;2023-05-20T13:03:02;4.25;;;2.72;;
10801;SDS011;5453;50.852;7.102;2023-05-20T13:05:35;3.15;;;2.40;;
10801;SDS011;5453;50.852;7.102;2023-05-20T13:08:07;4.20;;;2.80;;
10801;SDS011;5453;50.852;7.102;2023-05-20T13:10:42;3.85;;;2.72;;
10801;SDS011;5453;50.852;7.102;2023-05-20T13:13:14;3.97;;;2.58;;
10801;SDS011;5453;50.852;7.102;2023-05-20T13:15:50;4.40;;;2.63;;
10801;SDS011;5453;50.852;7.102;2023-05-20T13:18:22;3.55;;;2.45;;
10801;SDS011;5453;50.852;7.102;2023-05-20T13:20:54;4.28;;;2.80;;
10801;SDS011;5453;50.852;7.102;2023-05-20T13:23:26;3.25;;;2.20;;
10801;SDS011;5453;50.852;7.102;2023-05-20T13:26:00;3.10;;;2.22;;
10801;SDS011;5453;50.852;7.102;2023-05-20T13:28:32;3.05;;;2.10;;
10801;SDS011;5453;50.852;7.102;2023-05-20T13:31:04;3.10;;;2.17;;
10801;SDS011;5453;50.852;7.102;2023-05-20T13:33:36;3.67;;;2.25;;
10801;SDS011;5453;50.852;7.102;2023-05-20T13:36:09;3.33;;;2.42;;
10801;SDS011;5453;50.852;7.102;2023-05-20T13:38:41;5.97;;;2.58;;
10801;SDS011;5453;50.852;7.102;2023-05-20T13:41:14;7.43;;;2.75;;
10801;SDS011;5453;50.852;7.102;2023-05-20T13:43:46;3.50;;;2.45;;
10801;SDS011;5453;50.852;7.102;2023-05-20T13:46:18;5.15;;;2.65;;
10801;SDS011;5453;50.852;7.102;2023-05-20T13:48:50;5.82;;;2.85;;
10801;SDS011;5453;50.852;7.102;2023-05-20T13:51:22;4.85;;;2.38;;
10801;SDS011;5453;50.852;7.102;2023-05-20T13:53:54;3.85;;;2.38;;
10801;SDS011;5453;50.852;7.102;2023-05-20T13:56:28;3.42;;;2.10;;
10801;SDS011;5453;50.852;7.102;2023-05-20T13:59:00;3.45;;;2.40;;
10801;SDS011;5453;50.852;7.102;2023-05-20T14:01:32;3.72;;;2.22;;
10801;SDS011;5453;50.852;7.102;2023-05-20T14:04:04;4.22;;;2.45;;
10801;SDS011;5453;50.852;7.102;2023-05-20T14:06:36;3.47;;;2.33;;
10801;SDS011;5453;50.852;7.102;2023-05-20T14:09:08;3.17;;;2.35;;
10801;SDS011;5453;50.852;7.102;2023-05-20T14:11:42;4.70;;;2.70;;
10801;SDS011;5453;50.852;7.102;2023-05-20T14:14:14;4.03;;;2.20;;
10801;SDS011;5453;50.852;7.102;2023-05-20T14:16:46;4.50;;;2.53;;
10801;SDS011;5453;50.852;7.102;2023-05-20T14:19:18;4.32;;;2.13;;
10801;SDS011;5453;50.852;7.102;2023-05-20T14:21:50;4.43;;;2.50;;
10801;SDS011;5453;50.852;7.102;2023-05-20T14:24:22;4.47;;;2.50;;
10801;SDS011;5453;50.852;7.102;2023-05-20T14:26:55;5.20;;;2.60;;
10801;SDS011;5453;50.852;7.102;2023-05-20T14:29:28;4.07;;;2.60;;
10801;SDS011;5453;50.852;7.102;2023-05-20T14:32:00;3.63;;;2.63;;
10801;SDS011;5453;50.852;7.102;2023-05-20T14:34:33;3.85;;;2.38;;
10801;SDS011;5453;50.852;7.102;2023-05-20T14:37:05;5.82;;;2.63;;
10801;SDS011;5453;50.852;7.102;2023-05-20T14:39:38;3.70;;;2.53;;
10801;SDS011;5453;50.852;7.102;2023-05-20T14:42:12;3.08;;;2.30;;
10801;SDS011;5453;50.852;7.102;2023-05-20T14:44:44;4.68;;;2.88;;
10801;SDS011;5453;50.852;7.102;2023-05-20T14:47:16;3.47;;;2.42;;
10801;SDS011;5453;50.852;7.102;2023-05-20T14:52:23;6.10;;;2.97;;
10801;SDS011;5453;50.852;7.102;2023-05-20T14:54:55;3.83;;;2.42;;
10801;SDS011;5453;50.852;7.102;2023-05-20T14:57:28;4.63;;;2.60;;
10801;SDS011;5453;50.852;7.102;2023-05-20T15:00:00;3.63;;;2.60;;
10801;SDS011;5453;50.852;7.102;2023-05-20T15:02:33;4.00;;;2.50;;
10801;SDS011;5453;50.852;7.102;2023-05-20T15:05:05;5.95;;;2.70;;
10801;SDS011;5453;50.852;7.102;2023-05-20T15:07:38;4.68;;;2.95;;
10801;SDS011;5453;50.852;7.102;2023-05-20T15:10:10;4.07;;;2.67;;
10801;SDS011;5453;50.852;7.102;2023-05-20T15:12:43;3.90;;;2.85;;
10801;SDS011;5453;50.852;7.102;2023-05-20T15:15:15;4.68;;;3.03;;
10801;SDS011;5453;50.852;7.102;2023-05-20T15:17:48;4.22;;;2.78;;
10801;SDS011;5453;50.852;7.102;2023-05-20T15:20:20;6.03;;;2.60;;
10801;SDS011;5453;50.852;7.102;2023-05-20T15:22:52;5.97;;;2.60;;
10801;SDS011;5453;50.852;7.102;2023-05-20T15:25:24;3.92;;;2.47;;
10801;SDS011;5453;50.852;7.102;2023-05-20T15:27:58;3.83;;;2.35;;
10801;SDS011;5453;50.852;7.102;2023-05-20T15:30:30;5.97;;;2.60;;
10801;SDS011;5453;50.852;7.102;2023-05-20T15:33:02;4.57;;;2.40;;
10801;SDS011;5453;50.852;7.102;2023-05-20T15:35:34;4.97;;;2.72;;
10801;SDS011;5453;50.852;7.102;2023-05-20T15:38:06;7.25;;;2.53;;
10801;SDS011;5453;50.852;7.102;2023-05-20T15:40:38;4.63;;;3.08;;
10801;SDS011;5453;50.852;7.102;2023-05-20T15:43:12;4.07;;;2.55;;
10801;SDS011;5453;50.852;7.102;2023-05-20T15:45:44;4.40;;;2.55;;
10801;SDS011;5453;50.852;7.102;2023-05-20T15:48:17;5.60;;;3.03;;